createdAt,value
2019-02-07T00:05:14.192Z,27.23
2019-02-07T00:07:47.886Z,25.40
2019-02-07T00:10:39.650Z,26.37
2019-02-07T00:13:24.068Z,26.90
2019-02-07T00:16:18.731Z,24.63
2019-02-07T00:19:05.820Z,26.37
2019-02-07T00:21:40.714Z,27.20
2019-02-07T00:24:15.273Z,24.93
2019-02-07T00:26:50.463Z,26.43
2019-02-07T00:29:24.588Z,26.67
2019-02-07T00:31:58.197Z,25.77
2019-02-07T00:34:35.110Z,25.30
2019-02-07T00:37:13.110Z,26.90
2019-02-07T00:39:47.900Z,26.60
2019-02-07T00:42:38.325Z,24.33
2019-02-07T00:45:29.683Z,26.07
2019-02-07T00:48:17.936Z,25.97
2019-02-07T00:50:55.140Z,25.90
2019-02-07T00:53:28.772Z,25.47
2019-02-07T00:56:03.340Z,25.37
2019-02-07T00:58:38.270Z,25.83
2019-02-07T01:01:23.417Z,25.73
2019-02-07T01:03:56.905Z,25.13
2019-02-07T01:06:31.396Z,27.10
2019-02-07T01:09:08.139Z,26.67
2019-02-07T01:11:42.555Z,26.13
2019-02-07T01:14:17.737Z,25.63
2019-02-07T01:16:51.560Z,27.43
2019-02-07T01:19:38.945Z,25.30
2019-02-07T01:22:30.883Z,26.73
2019-02-07T01:25:19.036Z,26.27
2019-02-07T01:27:54.614Z,27.03
2019-02-07T01:30:28.441Z,27.60
2019-02-07T01:33:02.925Z,26.80
2019-02-07T01:35:36.615Z,27.20
2019-02-07T01:38:10.381Z,28.40
2019-02-07T01:40:43.988Z,26.87
2019-02-07T01:43:18.074Z,27.60
2019-02-07T01:45:51.686Z,28.97
2019-02-07T01:48:25.810Z,28.27
2019-02-07T01:51:10.624Z,27.53
2019-02-07T01:53:54.826Z,28.70
2019-02-07T01:56:28.979Z,27.70
2019-02-07T01:59:20.766Z,26.60
2019-02-07T02:02:12.539Z,28.60
2019-02-07T02:05:03.517Z,28.20
2019-02-07T02:07:38.039Z,27.10
2019-02-07T02:10:20.420Z,28.10
2019-02-07T02:12:56.626Z,29.97
2019-02-07T02:15:30.410Z,30.13
2019-02-07T02:18:04.447Z,27.50
2019-02-07T02:20:39.290Z,28.40
2019-02-07T02:23:13.388Z,30.70
2019-02-07T02:25:47.163Z,29.03
2019-02-07T02:28:34.121Z,28.43
2019-02-07T02:31:07.834Z,28.97
2019-02-07T02:33:42.740Z,29.27
2019-02-07T02:36:17.007Z,29.80
2019-02-07T02:38:50.421Z,29.27
2019-02-07T02:41:38.747Z,28.57
2019-02-07T02:44:29.552Z,28.27
2019-02-07T02:47:18.403Z,26.90
2019-02-07T02:49:52.679Z,28.93
2019-02-07T02:52:26.376Z,27.60
2019-02-07T02:55:38.211Z,27.57
2019-02-07T02:58:12.030Z,29.27
2019-02-07T03:01:23.024Z,28.60
2019-02-07T03:04:19.660Z,27.27
2019-02-07T03:07:12.234Z,28.80
2019-02-07T03:10:28.263Z,29.20
2019-02-07T03:13:38.972Z,28.50
2019-02-07T03:16:55.993Z,28.57
2019-02-07T03:19:48.820Z,28.20
2019-02-07T03:22:50.702Z,27.77
2019-02-07T03:25:43.559Z,28.30
2019-02-07T03:28:36.597Z,26.57
2019-02-07T03:31:38.298Z,28.67
2019-02-07T03:34:56.314Z,27.57
2019-02-07T03:37:58.120Z,27.03
2019-02-07T03:40:46.711Z,26.53
2019-02-07T03:43:42.474Z,26.27
2019-02-07T03:46:38.718Z,26.47
2019-02-07T03:49:31.846Z,26.87
2019-02-07T03:52:31.354Z,27.77
2019-02-07T03:55:44.371Z,26.73
2019-02-07T03:58:34.724Z,25.87
2019-02-07T04:01:30.876Z,26.70
2019-02-07T04:05:01.098Z,25.57
2019-02-07T04:07:54.425Z,26.87
2019-02-07T04:10:51.682Z,26.80
2019-02-07T04:13:50.158Z,25.37
2019-02-07T04:17:06.529Z,25.37
2019-02-07T04:20:27.715Z,25.93
2019-02-07T04:23:45.443Z,28.50
2019-02-07T04:26:36.865Z,26.43
2019-02-07T04:29:26.755Z,25.70
2019-02-07T04:32:24.154Z,25.73
2019-02-07T04:35:08.706Z,26.30
2019-02-07T04:38:33.348Z,26.80
2019-02-07T04:41:24.607Z,25.87
2019-02-07T04:44:17.595Z,25.83
2019-02-07T04:47:13.578Z,25.77
2019-02-07T04:50:28.716Z,25.60
2019-02-07T04:53:40.313Z,25.23
2019-02-07T04:56:24.742Z,23.87
2019-02-07T04:59:12.075Z,23.97
2019-02-07T05:02:16.016Z,23.27
2019-02-07T05:05:15.815Z,25.03
2019-02-07T05:08:02.728Z,23.20
2019-02-07T05:11:01.198Z,24.23
2019-02-07T05:27:21.384Z,23.40
2019-02-07T05:30:23.683Z,22.87
2019-02-07T05:33:15.472Z,22.70
2019-02-07T05:36:10.906Z,23.93
2019-02-07T05:38:59.676Z,21.47
2019-02-07T05:41:57.947Z,21.43
2019-02-07T05:45:01.066Z,21.47
2019-02-07T05:47:49.149Z,23.43
2019-02-07T05:51:07.162Z,23.87
2019-02-07T05:54:05.658Z,19.47
2019-02-07T05:57:07.395Z,21.43
2019-02-07T06:00:25.591Z,22.33
2019-02-07T06:03:24.390Z,22.50
2019-02-07T06:06:29.116Z,22.33
2019-02-07T06:09:56.837Z,21.73
2019-02-07T06:13:07.927Z,20.03
2019-02-07T06:16:35.755Z,20.93
2019-02-07T06:19:59.335Z,22.07
2019-02-07T06:23:04.835Z,21.67
2019-02-07T06:26:40.520Z,21.53
2019-02-07T06:29:51.985Z,21.80
2019-02-07T06:33:12.466Z,21.77
2019-02-07T06:36:32.950Z,22.30
2019-02-07T06:39:31.222Z,20.60
2019-02-07T06:42:29.546Z,21.10
2019-02-07T06:45:30.892Z,21.43
2019-02-07T06:48:26.016Z,20.73
2019-02-07T06:51:17.959Z,20.80
2019-02-07T06:54:09.595Z,20.70
2019-02-07T06:57:03.811Z,21.13
2019-02-07T07:00:05.473Z,21.03
2019-02-07T07:03:18.933Z,20.47
2019-02-07T07:06:14.911Z,18.60
2019-02-07T07:09:20.137Z,18.13
2019-02-07T07:12:16.264Z,18.37
2019-02-07T07:15:07.970Z,19.13
2019-02-07T07:18:06.532Z,19.00
2019-02-07T07:20:59.528Z,19.27
2019-02-07T07:26:55.118Z,19.30
2019-02-07T07:29:42.259Z,18.67
2019-02-07T07:32:33.160Z,18.90
2019-02-07T07:35:54.431Z,19.97
2019-02-07T07:38:41.616Z,19.07
2019-02-07T07:41:37.267Z,18.77
2019-02-07T07:44:27.525Z,19.87
2019-02-07T07:47:36.022Z,19.53
2019-02-07T07:50:50.828Z,18.50
2019-02-07T07:53:53.862Z,19.40
2019-02-07T07:56:50.227Z,18.00
2019-02-07T08:00:19.060Z,18.87
2019-02-07T08:03:20.966Z,18.10
2019-02-07T08:06:25.970Z,19.03
2019-02-07T08:09:47.125Z,17.37
2019-02-07T08:13:06.079Z,17.53
2019-02-07T08:16:15.985Z,18.20
2019-02-07T08:19:11.305Z,18.13
2019-02-07T08:22:05.362Z,18.63
2019-02-07T08:25:00.564Z,17.10
2019-02-07T08:28:01.805Z,17.63
2019-02-07T08:30:54.314Z,18.07
2019-02-07T08:34:09.951Z,18.23
2019-02-07T08:37:14.048Z,17.17
2019-02-07T08:39:59.607Z,18.30
2019-02-07T08:43:25.430Z,17.07
2019-02-07T08:46:17.132Z,17.67
2019-02-07T08:49:02.089Z,16.50
2019-02-07T08:52:04.132Z,18.50
2019-02-07T08:55:06.366Z,17.87
2019-02-07T08:58:14.146Z,17.47
2019-02-07T09:01:02.504Z,17.43
2019-02-07T09:03:53.834Z,17.27
2019-02-07T09:07:19.177Z,17.83
2019-02-07T09:10:25.704Z,18.80
2019-02-07T09:13:43.902Z,18.07
2019-02-07T09:16:33.801Z,17.90
2019-02-07T09:19:41.480Z,17.87
2019-02-07T09:22:59.620Z,18.13
2019-02-07T09:25:51.119Z,18.00
2019-02-07T09:29:17.717Z,18.10
2019-02-07T09:32:03.111Z,18.70
2019-02-07T09:34:58.783Z,18.87
2019-02-07T09:37:49.737Z,18.90
2019-02-07T09:40:40.594Z,18.13
2019-02-07T09:44:01.236Z,19.00
2019-02-07T09:47:13.659Z,18.20
2019-02-07T09:50:11.440Z,18.97
2019-02-07T09:53:06.439Z,19.30
2019-02-07T09:56:21.356Z,18.77
2019-02-07T09:59:39.036Z,17.53
2019-02-07T10:03:26.682Z,18.77
2019-02-07T10:06:26.992Z,19.83
2019-02-07T10:09:19.689Z,18.43
2019-02-07T10:12:10.721Z,18.77
2019-02-07T10:15:03.576Z,18.43
2019-02-07T10:17:50.855Z,18.13
2019-02-07T10:21:02.576Z,19.63
2019-02-07T10:24:21.178Z,17.73
2019-02-07T10:27:13.232Z,18.50
2019-02-07T10:30:08.799Z,19.60
2019-02-07T10:33:19.450Z,18.07
2019-02-07T10:36:26.836Z,17.07
2019-02-07T10:39:44.303Z,17.87
2019-02-07T10:42:39.964Z,17.70
2019-02-07T10:45:31.533Z,18.30
2019-02-07T10:48:24.461Z,18.10
2019-02-07T10:51:15.753Z,17.47
2019-02-07T10:54:07.807Z,17.77
2019-02-07T10:57:27.591Z,17.70
2019-02-07T11:00:39.677Z,18.67
2019-02-07T11:03:50.306Z,17.20
2019-02-07T11:07:00.051Z,18.23
2019-02-07T11:09:48.457Z,17.50
2019-02-07T11:12:37.720Z,18.43
2019-02-07T11:15:41.758Z,18.93
2019-02-07T11:18:37.518Z,16.83
2019-02-07T11:21:29.787Z,17.27
2019-02-07T11:24:22.602Z,17.10
2019-02-07T11:27:12.867Z,16.40
2019-02-07T11:30:16.887Z,17.47
2019-02-07T11:32:58.902Z,17.30
2019-02-07T11:36:01.533Z,17.33
2019-02-07T11:39:22.300Z,16.43
2019-02-07T11:42:12.866Z,17.10
2019-02-07T11:45:35.784Z,15.87
2019-02-07T11:48:24.723Z,17.07
2019-02-07T11:51:35.546Z,16.47
2019-02-07T11:54:19.000Z,17.27
2019-02-07T11:57:19.519Z,17.50
2019-02-07T12:00:25.842Z,17.03
2019-02-07T12:03:16.009Z,16.10
2019-02-07T12:06:10.443Z,17.10
2019-02-07T12:09:07.787Z,17.30
2019-02-07T12:12:30.945Z,16.57
2019-02-07T12:16:15.258Z,16.50
2019-02-07T12:19:19.960Z,16.73
2019-02-07T12:22:16.898Z,15.50
2019-02-07T12:25:27.701Z,14.00
2019-02-07T12:28:19.116Z,12.97
2019-02-07T12:31:12.398Z,13.57
2019-02-07T12:34:31.173Z,12.87
2019-02-07T12:37:55.931Z,12.77
2019-02-07T12:40:46.934Z,12.87
2019-02-07T12:43:38.386Z,12.80
2019-02-07T12:46:36.079Z,13.33
2019-02-07T12:49:29.297Z,13.30
2019-02-07T12:52:50.114Z,12.80
2019-02-07T12:55:52.755Z,12.43
2019-02-07T12:59:18.839Z,11.10
2019-02-07T13:02:14.991Z,10.47
2019-02-07T13:05:01.951Z,9.97
2019-02-07T13:07:53.326Z,8.90
2019-02-07T13:10:57.553Z,8.37
2019-02-07T13:13:47.345Z,5.83
2019-02-07T13:16:40.615Z,6.00
2019-02-07T13:19:27.449Z,5.90
2019-02-07T13:22:46.893Z,4.20
2019-02-07T13:25:38.543Z,4.10
2019-02-07T13:28:41.615Z,4.50
2019-02-07T13:32:21.384Z,3.53
2019-02-07T13:35:29.734Z,3.60
2019-02-07T13:39:05.798Z,3.50
2019-02-07T13:42:06.470Z,3.23
2019-02-07T13:45:07.362Z,3.30
2019-02-07T13:48:17.863Z,3.73
2019-02-07T13:51:30.108Z,3.37
2019-02-07T13:54:27.312Z,3.50
2019-02-07T13:57:19.131Z,3.60
2019-02-07T14:00:10.179Z,3.60
2019-02-07T14:03:05.238Z,3.80
2019-02-07T14:06:18.812Z,4.20
2019-02-07T14:09:10.418Z,4.47
2019-02-07T14:12:14.542Z,4.13
2019-02-07T14:15:48.282Z,4.00
2019-02-07T14:18:33.165Z,3.90
2019-02-07T14:21:26.599Z,3.97
2019-02-07T14:24:28.369Z,3.73
2019-02-07T14:27:24.138Z,3.53
2019-02-07T14:30:09.215Z,4.13
2019-02-07T14:33:14.507Z,4.27
2019-02-07T14:36:22.360Z,4.53
2019-02-07T14:39:21.837Z,4.17
2019-02-07T14:42:01.875Z,3.97
2019-02-07T14:45:06.177Z,3.80
2019-02-07T14:48:05.341Z,4.80
2019-02-07T15:01:25.945Z,4.33
2019-02-07T15:04:17.925Z,3.87
2019-02-07T15:06:52.004Z,3.77
2019-02-07T15:09:41.708Z,3.80
2019-02-07T15:12:30.420Z,4.13
2019-02-07T15:15:04.724Z,4.60
2019-02-07T15:17:38.685Z,4.13
2019-02-07T15:20:11.276Z,4.63
2019-02-07T15:22:46.195Z,4.30
2019-02-07T15:25:37.943Z,4.23
2019-02-07T15:28:24.661Z,4.30
2019-02-07T15:30:56.708Z,4.00
2019-02-07T15:33:30.022Z,3.90
2019-02-07T15:36:05.197Z,3.90
2019-02-07T15:38:38.814Z,4.50
2019-02-07T15:41:12.603Z,3.97
2019-02-07T15:44:04.591Z,3.90
2019-02-07T15:46:51.402Z,4.03
2019-02-07T15:49:37.075Z,5.60
2019-02-07T15:52:26.759Z,3.90
2019-02-07T15:55:12.383Z,4.10
2019-02-07T15:57:45.861Z,4.10
2019-02-07T16:00:49.793Z,3.40
2019-02-07T16:03:58.469Z,4.10
2019-02-07T16:06:32.350Z,3.23
2019-02-07T16:09:24.389Z,4.23
2019-02-07T16:12:10.123Z,4.10
2019-02-07T16:14:56.663Z,4.20
2019-02-07T16:17:30.917Z,3.70
2019-02-07T16:20:06.246Z,3.77
2019-02-07T16:22:42.457Z,4.00
2019-02-07T16:25:18.370Z,4.23
2019-02-07T16:27:52.147Z,4.30
2019-02-07T16:30:24.953Z,4.00
2019-02-07T16:32:58.404Z,4.73
2019-02-07T16:35:41.624Z,4.13
2019-02-07T16:38:21.431Z,3.90
2019-02-07T16:40:54.834Z,4.07
2019-02-07T16:43:32.567Z,4.90
2019-02-07T16:46:09.343Z,4.57
2019-02-07T16:48:42.473Z,4.27
2019-02-07T16:51:14.972Z,3.60
2019-02-07T16:54:00.037Z,4.10
2019-02-07T16:56:45.328Z,4.00
2019-02-07T16:59:36.813Z,4.33
2019-02-07T17:02:22.178Z,3.73
2019-02-07T17:05:10.679Z,5.27
2019-02-07T17:07:44.079Z,3.73
2019-02-07T17:10:20.567Z,3.77
2019-02-07T17:12:54.066Z,4.03
2019-02-07T17:15:27.272Z,3.87
2019-02-07T17:18:21.527Z,3.87
2019-02-07T17:20:55.964Z,3.70
2019-02-07T17:23:31.119Z,3.60
2019-02-07T17:45:50.247Z,4.03
2019-02-07T17:48:24.903Z,3.07
2019-02-07T17:51:09.865Z,4.40
2019-02-07T17:53:55.454Z,4.03
2019-02-07T17:56:29.333Z,3.63
2019-02-07T17:59:02.760Z,3.30
2019-02-07T18:01:36.415Z,4.07
2019-02-07T18:04:10.506Z,3.97
2019-02-07T18:06:44.065Z,4.00
2019-02-07T18:09:17.982Z,3.07
2019-02-07T18:12:09.691Z,3.53
2019-02-07T18:14:44.199Z,4.10
2019-02-07T18:17:42.179Z,3.47
2019-02-07T18:20:33.695Z,3.10
2019-02-07T18:23:06.257Z,3.30
2019-02-07T18:25:39.985Z,3.93
2019-02-07T18:28:13.696Z,3.33
2019-02-07T18:30:47.115Z,2.83
2019-02-07T18:33:20.617Z,3.40
2019-02-07T18:35:56.130Z,3.73
2019-02-07T18:38:29.902Z,3.33
2019-02-07T18:41:03.709Z,2.70
2019-02-07T18:43:39.250Z,3.47
2019-02-07T18:46:23.340Z,3.90
2019-02-07T18:48:57.945Z,3.53
2019-02-07T18:51:49.552Z,2.80
2019-02-07T18:54:34.344Z,3.27
2019-02-07T18:57:18.722Z,2.83
2019-02-07T19:00:12.385Z,2.90
2019-02-07T19:02:46.698Z,2.90
2019-02-07T19:05:22.975Z,3.07
2019-02-07T19:07:56.142Z,3.50
2019-02-07T19:10:30.084Z,2.53
2019-02-07T19:13:05.503Z,2.53
2019-02-07T19:15:41.545Z,2.67
2019-02-07T19:18:13.626Z,2.77
2019-02-07T19:20:45.917Z,2.87
2019-02-07T19:23:20.493Z,2.80
2019-02-07T19:25:52.225Z,3.10
2019-02-07T19:28:25.098Z,2.83
2019-02-07T19:30:59.288Z,3.10
2019-02-07T19:33:33.492Z,3.00
2019-02-07T19:36:08.250Z,3.33
2019-02-07T19:38:43.202Z,3.10
2019-02-07T19:41:16.701Z,3.30
2019-02-07T19:43:50.341Z,3.20
2019-02-07T19:46:22.869Z,2.80
2019-02-07T19:48:55.499Z,2.87
2019-02-07T19:51:28.236Z,3.30
2019-02-07T19:54:01.293Z,2.83
2019-02-07T19:56:34.781Z,3.27
2019-02-07T19:59:09.252Z,2.77
2019-02-07T20:01:55.211Z,2.80
2019-02-07T20:04:30.427Z,3.00
2019-02-07T20:17:49.587Z,3.43
2019-02-07T20:20:34.824Z,3.03
2019-02-07T20:23:21.272Z,3.17
2019-02-07T20:25:55.071Z,3.00
2019-02-07T20:28:28.666Z,2.77
2019-02-07T20:31:01.816Z,3.07
2019-02-07T20:33:59.963Z,2.73
2019-02-07T20:36:33.024Z,3.07
2019-02-07T20:39:09.039Z,2.23
2019-02-07T20:41:44.492Z,2.60
2019-02-07T20:44:18.978Z,2.83
2019-02-07T20:47:07.173Z,2.40
2019-02-07T20:49:42.317Z,2.70
2019-02-07T20:52:16.407Z,2.50
2019-02-07T20:54:49.960Z,2.73
2019-02-07T20:57:50.370Z,2.40
2019-02-07T21:00:32.029Z,2.30
2019-02-07T21:03:08.185Z,2.13
2019-02-07T21:05:43.275Z,2.50
2019-02-07T21:52:56.728Z,2.43
2019-02-07T21:55:31.826Z,2.33
2019-02-07T21:58:05.154Z,2.57
2019-02-07T22:00:41.201Z,2.83
2019-02-07T22:03:15.313Z,2.50
2019-02-07T22:05:48.757Z,2.70
2019-02-07T22:08:33.286Z,2.53
2019-02-07T22:11:09.294Z,2.73
2019-02-07T22:13:48.980Z,2.43
2019-02-07T22:16:24.536Z,2.30
2019-02-07T22:19:03.390Z,2.30
2019-02-07T22:21:38.077Z,2.63
2019-02-07T22:24:19.144Z,3.37
2019-02-07T22:26:58.473Z,2.10
2019-02-07T22:29:33.107Z,2.40
2019-02-07T22:32:07.471Z,2.07
2019-02-07T22:34:40.767Z,2.00
2019-02-07T22:37:18.085Z,2.23
2019-02-07T22:39:57.306Z,2.10
2019-02-07T22:42:30.724Z,2.00
2019-02-07T22:45:04.861Z,2.40
2019-02-07T22:47:43.068Z,2.70
2019-02-07T22:50:21.763Z,2.20
2019-02-07T22:52:56.997Z,2.13
2019-02-07T22:55:30.555Z,2.47
2019-02-07T22:58:04.577Z,2.23
2019-02-07T23:01:19.816Z,2.30
2019-02-07T23:03:58.258Z,2.50
2019-02-07T23:06:30.656Z,2.50
